Time,TemperatureF,DewpointF,PressureIn,WindDirection,WindDirectionDegrees,WindSpeedMPH,WindSpeedGustMPH,Humidity,HourlyPrecipIn,Conditions,Clouds,dailyrainin,SoftwareType,DateUTC
2013-05-27 00:11:00,44.0,42.0,-100.00,East,97,2.0,5.0,93,0.02,,,0.02,,2013-05-27 06:11:00,
2013-05-27 00:21:00,44.0,42.0,-100.00,East,97,2.0,5.0,93,0.02,,,0.02,,2013-05-27 06:21:00,
2013-05-27 00:32:00,44.0,42.0,-100.00,East,97,2.0,5.0,93,0.02,,,0.02,,2013-05-27 06:32:00,
2013-05-27 00:41:00,44.0,42.0,-100.00,East,97,2.0,5.0,93,0.02,,,0.02,,2013-05-27 06:41:00,
2013-05-27 00:52:00,44.0,42.0,-100.00,East,97,2.0,5.0,93,0.02,,,0.02,,2013-05-27 06:52:00,
2013-05-27 01:11:00,41.0,40.0,-100.00,ENE,75,1.0,1.0,96,0.00,,,0.02,,2013-05-27 07:11:00,
2013-05-27 01:21:00,41.0,40.0,-100.00,ENE,75,1.0,1.0,96,0.00,,,0.02,,2013-05-27 07:21:00,
2013-05-27 01:31:00,41.0,40.0,-100.00,ENE,75,1.0,1.0,96,0.00,,,0.02,,2013-05-27 07:31:00,
2013-05-27 01:41:00,41.0,40.0,-100.00,ENE,75,1.0,1.0,96,0.00,,,0.02,,2013-05-27 07:41:00,
2013-05-27 01:52:00,41.0,40.0,-100.00,ENE,75,1.0,1.0,96,0.00,,,0.02,,2013-05-27 07:52:00,
2013-05-27 02:11:00,37.0,37.0,-100.00,NNE,16,2.0,2.0,97,0.01,,,0.03,,2013-05-27 08:11:00,
2013-05-27 02:21:00,37.0,37.0,-100.00,NNE,16,2.0,2.0,97,0.01,,,0.03,,2013-05-27 08:21:00,
2013-05-27 02:32:00,37.0,37.0,-100.00,NNE,16,2.0,2.0,97,0.01,,,0.03,,2013-05-27 08:32:00,
2013-05-27 02:42:00,37.0,37.0,-100.00,NNE,16,2.0,2.0,97,0.01,,,0.03,,2013-05-27 08:42:00,
2013-05-27 02:51:00,37.0,37.0,-100.00,NNE,16,2.0,2.0,97,0.01,,,0.03,,2013-05-27 08:51:00,
2013-05-27 03:11:00,37.0,37.0,-100.00,West,260,1.0,2.0,98,0.00,,,0.03,,2013-05-27 09:11:00,
2013-05-27 03:21:00,37.0,37.0,-100.00,West,260,1.0,2.0,98,0.00,,,0.03,,2013-05-27 09:21:00,
2013-05-27 03:33:00,37.0,37.0,-100.00,West,260,1.0,2.0,98,0.00,,,0.03,,2013-05-27 09:33:00,
2013-05-27 03:42:00,37.0,37.0,-100.00,West,260,1.0,2.0,98,0.00,,,0.03,,2013-05-27 09:42:00,
2013-05-27 03:52:00,37.0,37.0,-100.00,West,260,1.0,2.0,98,0.00,,,0.03,,2013-05-27 09:52:00,
2013-05-27 04:12:00,38.0,38.0,-100.00,South,183,2.0,5.0,98,0.00,,,0.03,,2013-05-27 10:12:00,
2013-05-27 04:22:00,38.0,38.0,-100.00,South,183,2.0,5.0,98,0.00,,,0.03,,2013-05-27 10:22:00,
2013-05-27 04:32:00,38.0,38.0,-100.00,South,183,2.0,5.0,98,0.00,,,0.03,,2013-05-27 10:32:00,
2013-05-27 04:42:00,38.0,38.0,-100.00,South,183,2.0,5.0,98,0.00,,,0.03,,2013-05-27 10:42:00,
2013-05-27 04:52:00,38.0,38.0,-100.00,South,183,2.0,5.0,98,0.00,,,0.03,,2013-05-27 10:52:00,
2013-05-27 05:11:00,38.0,38.0,-100.00,NW,321,4.0,6.0,98,0.00,,,0.03,,2013-05-27 11:11:00,
2013-05-27 05:21:00,38.0,38.0,-100.00,NW,321,4.0,6.0,98,0.00,,,0.03,,2013-05-27 11:21:00,
2013-05-27 05:32:00,38.0,38.0,-100.00,NW,321,4.0,6.0,98,0.00,,,0.03,,2013-05-27 11:32:00,
2013-05-27 05:42:00,38.0,38.0,-100.00,NW,321,4.0,6.0,98,0.00,,,0.03,,2013-05-27 11:42:00,
2013-05-27 05:51:00,38.0,38.0,-100.00,NW,321,4.0,6.0,98,0.00,,,0.03,,2013-05-27 11:51:00,
2013-05-27 06:11:00,35.0,35.0,-100.00,SSW,207,2.0,6.0,98,0.00,,,0.03,,2013-05-27 12:11:00,
2013-05-27 06:21:00,35.0,35.0,-100.00,SSW,207,2.0,6.0,98,0.00,,,0.03,,2013-05-27 12:21:00,
2013-05-27 06:32:00,35.0,35.0,-100.00,SSW,207,2.0,6.0,98,0.00,,,0.03,,2013-05-27 12:32:00,
2013-05-27 06:42:00,35.0,35.0,-100.00,SSW,207,2.0,6.0,98,0.00,,,0.03,,2013-05-27 12:42:00,
2013-05-27 06:52:00,35.0,35.0,-100.00,SSW,207,2.0,6.0,98,0.00,,,0.03,,2013-05-27 12:52:00,
2013-05-27 07:11:00,39.0,38.0,-100.00,SSW,192,5.0,8.0,96,0.00,,,0.03,,2013-05-27 13:11:00,
2013-05-27 07:21:00,39.0,38.0,-100.00,SSW,192,5.0,8.0,96,0.00,,,0.03,,2013-05-27 13:21:00,
2013-05-27 07:32:00,39.0,38.0,-100.00,SSW,192,5.0,8.0,96,0.00,,,0.03,,2013-05-27 13:32:00,
2013-05-27 07:41:00,39.0,38.0,-100.00,SSW,192,5.0,8.0,96,0.00,,,0.03,,2013-05-27 13:41:00,
2013-05-27 07:52:00,39.0,38.0,-100.00,SSW,192,5.0,8.0,96,0.00,,,0.03,,2013-05-27 13:52:00,
2013-05-27 08:11:00,40.0,37.0,-100.00,South,179,8.0,14.0,90,0.00,,,0.03,,2013-05-27 14:11:00,
2013-05-27 08:21:00,40.0,37.0,-100.00,South,179,8.0,14.0,90,0.00,,,0.03,,2013-05-27 14:21:00,
2013-05-27 08:32:00,40.0,37.0,-100.00,South,179,8.0,14.0,90,0.00,,,0.03,,2013-05-27 14:32:00,
2013-05-27 08:42:00,40.0,37.0,-100.00,South,179,8.0,14.0,90,0.00,,,0.03,,2013-05-27 14:42:00,
2013-05-27 08:51:00,40.0,37.0,-100.00,South,179,8.0,14.0,90,0.00,,,0.03,,2013-05-27 14:51:00,
2013-05-27 09:11:00,39.0,37.0,-100.00,South,179,5.0,10.0,91,0.00,,,0.03,,2013-05-27 15:11:00,
2013-05-27 09:21:00,39.0,37.0,-100.00,South,179,5.0,10.0,91,0.00,,,0.03,,2013-05-27 15:21:00,
2013-05-27 09:33:00,39.0,37.0,-100.00,South,179,5.0,10.0,91,0.00,,,0.03,,2013-05-27 15:33:00,
2013-05-27 09:43:00,39.0,37.0,-100.00,South,179,5.0,10.0,91,0.00,,,0.03,,2013-05-27 15:43:00,
2013-05-27 09:53:00,39.0,37.0,-100.00,South,179,5.0,10.0,91,0.00,,,0.03,,2013-05-27 15:53:00,
2013-05-27 10:12:00,40.0,37.0,-100.00,SSW,195,5.0,10.0,88,0.00,,,0.03,,2013-05-27 16:12:00,
2013-05-27 10:23:00,40.0,37.0,-100.00,SSW,195,5.0,10.0,88,0.00,,,0.03,,2013-05-27 16:23:00,
2013-05-27 10:33:00,40.0,37.0,-100.00,SSW,195,5.0,10.0,88,0.00,,,0.03,,2013-05-27 16:33:00,
2013-05-27 10:42:00,40.0,37.0,-100.00,SSW,195,5.0,10.0,88,0.00,,,0.03,,2013-05-27 16:42:00,
2013-05-27 10:52:00,40.0,37.0,-100.00,SSW,195,5.0,10.0,88,0.00,,,0.03,,2013-05-27 16:52:00,
2013-05-27 11:11:00,41.0,37.0,-100.00,SW,230,7.0,12.0,83,0.00,,,0.03,,2013-05-27 17:11:00,
2013-05-27 11:22:00,41.0,37.0,-100.00,SW,230,7.0,12.0,83,0.00,,,0.03,,2013-05-27 17:22:00,
2013-05-27 11:32:00,41.0,37.0,-100.00,SW,230,7.0,12.0,83,0.00,,,0.03,,2013-05-27 17:32:00,
2013-05-27 11:42:00,41.0,37.0,-100.00,SW,230,7.0,12.0,83,0.00,,,0.03,,2013-05-27 17:42:00,
2013-05-27 11:52:00,41.0,37.0,-100.00,SW,230,7.0,12.0,83,0.00,,,0.03,,2013-05-27 17:52:00,
2013-05-27 12:11:00,43.0,36.0,-100.00,SW,221,7.0,10.0,76,0.00,,,0.03,,2013-05-27 18:11:00,
2013-05-27 12:21:00,43.0,36.0,-100.00,SW,221,7.0,10.0,76,0.00,,,0.03,,2013-05-27 18:21:00,
2013-05-27 12:32:00,43.0,36.0,-100.00,SW,221,7.0,10.0,76,0.00,,,0.03,,2013-05-27 18:32:00,
2013-05-27 12:42:00,43.0,36.0,-100.00,SW,221,7.0,10.0,76,0.00,,,0.03,,2013-05-27 18:42:00,
2013-05-27 12:52:00,43.0,36.0,-100.00,SW,221,7.0,10.0,76,0.00,,,0.03,,2013-05-27 18:52:00,
2013-05-27 13:11:00,46.0,36.0,-100.00,SSW,208,8.0,14.0,69,0.00,,,0.03,,2013-05-27 19:11:00,
2013-05-27 13:21:00,46.0,36.0,-100.00,SSW,208,8.0,14.0,69,0.00,,,0.03,,2013-05-27 19:21:00,
2013-05-27 13:31:00,46.0,36.0,-100.00,SSW,208,8.0,14.0,69,0.00,,,0.03,,2013-05-27 19:31:00,
2013-05-27 13:41:00,46.0,36.0,-100.00,SSW,208,8.0,14.0,69,0.00,,,0.03,,2013-05-27 19:41:00,
2013-05-27 13:52:00,46.0,36.0,-100.00,SSW,208,8.0,14.0,69,0.00,,,0.03,,2013-05-27 19:52:00,
2013-05-27 14:11:00,48.0,37.0,-100.00,South,176,5.0,6.0,67,0.00,,,0.03,,2013-05-27 20:11:00,
2013-05-27 14:22:00,48.0,37.0,-100.00,South,176,5.0,6.0,67,0.00,,,0.03,,2013-05-27 20:22:00,
2013-05-27 14:32:00,48.0,37.0,-100.00,South,176,5.0,6.0,67,0.00,,,0.03,,2013-05-27 20:32:00,
2013-05-27 14:41:00,48.0,37.0,-100.00,South,176,5.0,6.0,67,0.00,,,0.03,,2013-05-27 20:41:00,
2013-05-27 14:52:00,48.0,37.0,-100.00,South,176,5.0,6.0,67,0.00,,,0.03,,2013-05-27 20:52:00,
2013-05-27 15:12:00,48.0,39.0,-100.00,SSE,160,6.0,9.0,70,0.00,,,0.03,,2013-05-27 21:12:00,
2013-05-27 15:21:00,48.0,39.0,-100.00,SSE,160,6.0,9.0,70,0.00,,,0.03,,2013-05-27 21:21:00,
2013-05-27 15:33:00,48.0,39.0,-100.00,SSE,160,6.0,9.0,70,0.00,,,0.03,,2013-05-27 21:33:00,
2013-05-27 15:43:00,48.0,39.0,-100.00,SSE,160,6.0,9.0,70,0.00,,,0.03,,2013-05-27 21:43:00,
2013-05-27 15:53:00,48.0,39.0,-100.00,SSE,160,6.0,9.0,70,0.00,,,0.03,,2013-05-27 21:53:00,
2013-05-27 16:12:00,52.0,39.0,-100.00,South,186,10.0,16.0,60,0.00,,,0.03,,2013-05-27 22:12:00,
2013-05-27 16:22:00,52.0,39.0,-100.00,South,186,10.0,16.0,60,0.00,,,0.03,,2013-05-27 22:22:00,
2013-05-27 16:32:00,52.0,39.0,-100.00,South,186,10.0,16.0,60,0.00,,,0.03,,2013-05-27 22:32:00,
2013-05-27 16:42:00,52.0,39.0,-100.00,South,186,10.0,16.0,60,0.00,,,0.03,,2013-05-27 22:42:00,
2013-05-27 16:52:00,52.0,39.0,-100.00,South,186,10.0,16.0,60,0.00,,,0.03,,2013-05-27 22:52:00,
2013-05-27 17:12:00,56.0,37.0,-100.00,South,186,6.0,10.0,48,0.00,,,0.03,,2013-05-27 23:12:00,
2013-05-27 17:22:00,56.0,37.0,-100.00,South,186,6.0,10.0,48,0.00,,,0.03,,2013-05-27 23:22:00,
2013-05-27 17:32:00,56.0,37.0,-100.00,South,186,6.0,10.0,48,0.00,,,0.03,,2013-05-27 23:32:00,
2013-05-27 17:42:00,56.0,37.0,-100.00,South,186,6.0,10.0,48,0.00,,,0.03,,2013-05-27 23:42:00,
2013-05-27 17:52:00,56.0,37.0,-100.00,South,186,6.0,10.0,48,0.00,,,0.03,,2013-05-27 23:52:00,
2013-05-27 18:11:00,57.0,38.0,-100.00,SW,215,7.0,10.0,49,0.00,,,0.03,,2013-05-28 00:11:00,
2013-05-27 18:21:00,57.0,38.0,-100.00,SW,215,7.0,10.0,49,0.00,,,0.03,,2013-05-28 00:21:00,
2013-05-27 18:31:00,57.0,38.0,-100.00,SW,215,7.0,10.0,49,0.00,,,0.03,,2013-05-28 00:31:00,
2013-05-27 18:41:00,57.0,38.0,-100.00,SW,215,7.0,10.0,49,0.00,,,0.03,,2013-05-28 00:41:00,
2013-05-27 18:51:00,57.0,38.0,-100.00,SW,215,7.0,10.0,49,0.00,,,0.03,,2013-05-28 00:51:00,
2013-05-27 19:11:00,57.0,34.0,-100.00,SSW,202,6.0,8.0,41,0.00,,,0.03,,2013-05-28 01:11:00,
2013-05-27 19:21:00,57.0,34.0,-100.00,SSW,202,6.0,8.0,41,0.00,,,0.03,,2013-05-28 01:21:00,
2013-05-27 19:31:00,57.0,34.0,-100.00,SSW,202,6.0,8.0,41,0.00,,,0.03,,2013-05-28 01:31:00,
2013-05-27 19:41:00,57.0,34.0,-100.00,SSW,202,6.0,8.0,41,0.00,,,0.03,,2013-05-28 01:41:00,
2013-05-27 19:52:00,57.0,34.0,-100.00,SSW,202,6.0,8.0,41,0.00,,,0.03,,2013-05-28 01:52:00,
2013-05-27 20:11:00,58.0,33.0,-100.00,SSW,203,9.0,16.0,39,0.00,,,0.03,,2013-05-28 02:11:00,
2013-05-27 20:21:00,58.0,33.0,-100.00,SSW,203,9.0,16.0,39,0.00,,,0.03,,2013-05-28 02:21:00,
2013-05-27 20:32:00,58.0,33.0,-100.00,SSW,203,9.0,16.0,39,0.00,,,0.03,,2013-05-28 02:32:00,
2013-05-27 20:41:00,58.0,33.0,-100.00,SSW,203,9.0,16.0,39,0.00,,,0.03,,2013-05-28 02:41:00,
2013-05-27 20:51:00,58.0,33.0,-100.00,SSW,203,9.0,16.0,39,0.00,,,0.03,,2013-05-28 02:51:00,
2013-05-27 21:11:00,50.0,35.0,-100.00,SSW,204,4.0,6.0,56,0.00,,,0.03,,2013-05-28 03:11:00,
2013-05-27 21:21:00,50.0,35.0,-100.00,SSW,204,4.0,6.0,56,0.00,,,0.03,,2013-05-28 03:21:00,
2013-05-27 21:33:00,50.0,35.0,-100.00,SSW,204,4.0,6.0,56,0.00,,,0.03,,2013-05-28 03:33:00,
2013-05-27 21:43:00,50.0,35.0,-100.00,SSW,204,4.0,6.0,56,0.00,,,0.03,,2013-05-28 03:43:00,
2013-05-27 21:53:00,50.0,35.0,-100.00,SSW,204,4.0,6.0,56,0.00,,,0.03,,2013-05-28 03:53:00,
2013-05-27 22:12:00,46.0,37.0,-100.00,South,177,1.0,4.0,69,0.00,,,0.03,,2013-05-28 04:12:00,
2013-05-27 22:22:00,46.0,37.0,-100.00,South,177,1.0,4.0,69,0.00,,,0.03,,2013-05-28 04:22:00,
2013-05-27 22:33:00,46.0,37.0,-100.00,South,177,1.0,4.0,69,0.00,,,0.03,,2013-05-28 04:33:00,
2013-05-27 22:42:00,46.0,37.0,-100.00,South,177,1.0,4.0,69,0.00,,,0.03,,2013-05-28 04:42:00,
2013-05-27 22:52:00,46.0,37.0,-100.00,South,177,1.0,4.0,69,0.00,,,0.03,,2013-05-28 04:52:00,
2013-05-27 23:12:00,42.0,38.0,-100.00,SSW,198,1.0,2.0,86,0.00,,,0.03,,2013-05-28 05:12:00,
2013-05-27 23:22:00,42.0,38.0,-100.00,SSW,198,1.0,2.0,86,0.00,,,0.03,,2013-05-28 05:22:00,
2013-05-27 23:32:00,42.0,38.0,-100.00,SSW,198,1.0,2.0,86,0.00,,,0.03,,2013-05-28 05:32:00,
2013-05-27 23:42:00,42.0,38.0,-100.00,SSW,198,1.0,2.0,86,0.00,,,0.03,,2013-05-28 05:42:00,
2013-05-27 23:52:00,42.0,38.0,-100.00,SSW,198,1.0,2.0,86,0.00,,,0.03,,2013-05-28 05:52:00,